Aviation Digital Data Service (ADDS)

Output produced by METARs form (1647 UTC 24 August 2019)
found at http://www.aviationweather.gov/metar/data/
 
Forecast for: RJFO (OITA AIRPORT , JP)
Text: TAF RJFO 241110Z 2412/2518 24007KT 8000 -SHRA FEW010 SCT020 BKN030
Forecast period: 1200 UTC 24 August 2019 to 0600 UTC 25 August 2019
Forecast type: FROM: standard forecast or significant change
Winds: from the WSW (240 degrees) at 8 MPH (7 knots; 3.6 m/s)
Visibility: 5 miles (8 km)
Ceiling: 3000 feet AGL
Clouds: few clouds at 1000 feet AGL
scattered clouds at 2000 feet AGL
broken clouds at 3000 feet AGL
Weather: -SHRA  (light rain showers)
Text: TEMPO 2412/2415 4000 SHRA BR
Forecast period: 1200 to 1500 UTC 24 August 2019
Forecast type: TEMPORARY: The following changes expected for less than half the time period
Visibility: 2.49 miles (4.01 km)
Ceiling: unknown
Clouds: missing
Weather: SHRA BR  (rain showers, mist)
Text: BECMG 2506/2509 30004KT
Forecast period: 0600 to 1800 UTC 25 August 2019
Forecast type: BECOMING: Conditions expected to become as follows by 0900 UTC 25 August 2019
Winds: from the WNW (300 degrees) at 5 MPH (4 knots; 2.1 m/s)
Visibility: 5 miles (8 km)
Ceiling: 3000 feet AGL
Clouds: few clouds at 1000 feet AGL
scattered clouds at 2000 feet AGL
broken clouds at 3000 feet AGL
Weather: -SHRA  (light rain showers)